TimeEST,TemperatureF,Dew PointF,Humidity,Sea Level PressureIn,VisibilityMPH,Wind Direction,Wind SpeedMPH,Gust SpeedMPH,PrecipitationIn,Events,Conditions,WindDirDegrees,DateUTC
12:15 AM,36.1,30.7,81,29.74,10.0,SW,12.7,19.6,N/A,,Clear,220,2013-01-19 05:15:00
12:35 AM,36.1,30.9,81,29.73,10.0,SSW,12.7,-,N/A,,Mostly Cloudy,210,2013-01-19 05:35:00
12:55 AM,36.1,30.7,81,29.73,10.0,SW,12.7,-,N/A,,Overcast,220,2013-01-19 05:55:00
1:15 AM,36.1,30.6,80,29.72,10.0,SW,15.0,-,N/A,,Overcast,220,2013-01-19 06:15:00
1:35 AM,36.1,30.6,80,29.72,10.0,SW,12.7,-,N/A,,Overcast,220,2013-01-19 06:35:00
1:55 AM,36.1,30.6,80,29.72,10.0,SW,10.4,19.6,N/A,,Overcast,230,2013-01-19 06:55:00
2:14 AM,36.1,30.7,81,29.73,10.0,SW,11.5,-,N/A,,Overcast,230,2013-01-19 07:14:00
2:35 AM,36.1,31.1,82,29.73,10.0,SW,11.5,-,N/A,,Overcast,230,2013-01-19 07:35:00
2:55 AM,36.1,30.9,81,29.74,10.0,SW,10.4,-,N/A,,Overcast,230,2013-01-19 07:55:00
3:14 AM,36.3,31.1,81,29.74,10.0,WSW,9.2,-,N/A,,Overcast,240,2013-01-19 08:14:00
3:35 AM,37.4,32.0,81,29.74,10.0,WSW,11.5,16.1,N/A,,Overcast,240,2013-01-19 08:35:00
3:55 AM,36.5,31.8,83,29.74,10.0,WSW,11.5,-,N/A,,Overcast,240,2013-01-19 08:55:00
4:15 AM,36.3,31.6,83,29.74,10.0,WSW,10.4,-,N/A,,Overcast,240,2013-01-19 09:15:00
4:35 AM,36.1,31.6,84,29.74,10.0,WSW,10.4,-,N/A,,Overcast,240,2013-01-19 09:35:00
4:55 AM,36.1,31.8,84,29.74,10.0,WSW,11.5,-,N/A,,Overcast,240,2013-01-19 09:55:00
5:15 AM,36.1,32.0,85,29.74,10.0,WSW,9.2,-,N/A,,Overcast,240,2013-01-19 10:15:00
5:35 AM,36.1,32.0,85,29.74,10.0,WSW,10.4,16.1,N/A,,Overcast,240,2013-01-19 10:35:00
5:55 AM,36.1,32.2,86,29.75,10.0,West,10.4,-,N/A,,Overcast,260,2013-01-19 10:55:00
6:15 AM,36.1,32.2,86,29.76,10.0,WSW,8.1,-,N/A,,Overcast,250,2013-01-19 11:15:00
6:35 AM,36.1,32.2,86,29.76,10.0,WSW,11.5,16.1,N/A,,Overcast,240,2013-01-19 11:35:00
6:55 AM,36.1,32.2,86,29.76,10.0,WSW,10.4,-,N/A,,Overcast,250,2013-01-19 11:55:00
7:15 AM,36.1,32.0,85,29.77,10.0,WSW,8.1,-,N/A,,Overcast,250,2013-01-19 12:15:00
7:35 AM,36.1,32.2,86,29.77,10.0,WSW,6.9,-,N/A,,Overcast,240,2013-01-19 12:35:00
7:55 AM,36.1,32.2,86,29.77,10.0,WSW,5.8,-,N/A,,Overcast,250,2013-01-19 12:55:00
8:15 AM,36.1,32.4,86,29.77,10.0,WSW,5.8,-,N/A,,Overcast,240,2013-01-19 13:15:00
8:35 AM,36.1,32.4,86,29.78,10.0,WSW,6.9,-,N/A,,Overcast,240,2013-01-19 13:35:00
8:55 AM,36.1,32.2,86,29.78,10.0,WSW,3.5,-,N/A,,Overcast,250,2013-01-19 13:55:00
9:15 AM,36.1,32.4,86,29.77,10.0,SW,4.6,-,N/A,,Overcast,230,2013-01-19 14:15:00
9:35 AM,36.1,32.5,87,29.77,10.0,SW,6.9,-,N/A,,Overcast,220,2013-01-19 14:35:00
9:55 AM,36.1,32.4,86,29.76,10.0,SSW,5.8,-,N/A,,Overcast,200,2013-01-19 14:55:00
10:15 AM,36.1,32.2,86,29.76,10.0,SSW,6.9,-,N/A,,Overcast,200,2013-01-19 15:15:00
10:35 AM,36.1,32.2,86,29.76,10.0,SSW,6.9,-,N/A,,Overcast,200,2013-01-19 15:35:00
10:55 AM,36.1,32.4,86,29.76,10.0,SSW,10.4,-,N/A,,Overcast,210,2013-01-19 15:55:00
11:15 AM,36.1,32.4,86,29.75,10.0,SW,9.2,-,N/A,,Overcast,220,2013-01-19 16:15:00
11:35 AM,36.1,32.2,86,29.73,10.0,SSW,9.2,-,N/A,,Overcast,210,2013-01-19 16:35:00
11:55 AM,36.1,32.0,85,29.71,10.0,SSW,11.5,-,N/A,,Light Drizzle,210,2013-01-19 16:55:00
12:15 PM,36.1,32.0,85,29.69,10.0,SSW,6.9,-,N/A,,Drizzle,200,2013-01-19 17:15:00
12:35 PM,36.1,32.2,86,29.67,10.0,South,5.8,-,N/A,Rain,Rain,190,2013-01-19 17:35:00
12:55 PM,36.1,32.2,86,29.66,10.0,SSW,10.4,-,N/A,,Drizzle,200,2013-01-19 17:55:00
1:15 PM,36.1,32.4,86,29.66,7.0,SSW,11.5,16.1,N/A,Rain,Rain,210,2013-01-19 18:15:00
1:35 PM,36.1,32.9,88,29.64,5.0,SSW,10.4,16.1,N/A,Rain,Rain,210,2013-01-19 18:35:00
1:55 PM,36.7,33.1,87,29.62,7.0,SSW,16.1,-,N/A,,Drizzle,200,2013-01-19 18:55:00
2:15 PM,36.7,32.9,86,29.60,10.0,SSW,13.8,17.3,N/A,,Drizzle,200,2013-01-19 19:15:00
2:35 PM,37.0,33.1,86,29.60,10.0,SSW,12.7,17.3,N/A,,Drizzle,200,2013-01-19 19:35:00
2:55 PM,36.1,32.4,86,29.58,10.0,South,16.1,21.9,N/A,Rain,Rain,190,2013-01-19 19:55:00
3:15 PM,36.1,32.2,86,29.56,10.0,SSW,15.0,20.7,N/A,,Overcast,200,2013-01-19 20:15:00
3:35 PM,37.2,33.1,85,29.54,10.0,SSW,16.1,21.9,N/A,,Overcast,200,2013-01-19 20:35:00
3:55 PM,37.4,33.4,86,29.57,10.0,SW,19.6,27.6,N/A,,Overcast,220,2013-01-19 20:55:00
4:15 PM,36.1,32.2,86,29.55,10.0,SSW,17.3,27.6,N/A,,Overcast,210,2013-01-19 21:15:00
4:35 PM,36.1,32.2,86,29.55,10.0,SSW,20.7,26.5,N/A,,Overcast,210,2013-01-19 21:35:00
4:55 PM,36.1,32.0,85,29.54,10.0,SW,19.6,24.2,N/A,,Overcast,220,2013-01-19 21:55:00
5:15 PM,36.1,32.0,85,29.54,10.0,SSW,16.1,25.3,N/A,,Overcast,210,2013-01-19 22:15:00
5:35 PM,36.1,32.0,85,29.53,10.0,SSW,16.1,23.0,N/A,,Overcast,210,2013-01-19 22:35:00
5:55 PM,36.1,32.0,85,29.54,10.0,SSW,15.0,20.7,N/A,,Overcast,210,2013-01-19 22:55:00
6:15 PM,36.1,32.0,85,29.51,10.0,SSW,16.1,20.7,N/A,Rain,Light Rain,200,2013-01-19 23:15:00
6:35 PM,36.1,32.2,86,29.53,10.0,SW,13.8,-,N/A,Rain,Light Rain,220,2013-01-19 23:35:00
6:55 PM,36.1,32.5,87,29.52,7.0,SSW,17.3,23.0,N/A,Rain,Rain,210,2013-01-19 23:55:00
7:15 PM,36.1,32.9,88,29.51,5.0,SW,13.8,21.9,N/A,Rain,Light Rain,220,2013-01-20 00:15:00
7:35 PM,36.1,33.1,89,29.50,10.0,SW,16.1,21.9,N/A,Rain,Light Rain,220,2013-01-20 00:35:00
7:55 PM,36.1,32.9,88,29.49,10.0,SW,15.0,20.7,N/A,Rain,Light Rain,220,2013-01-20 00:55:00
8:15 PM,36.1,32.9,88,29.48,10.0,SW,19.6,25.3,N/A,Rain,Light Rain,230,2013-01-20 01:15:00
8:35 PM,36.1,32.9,88,29.47,10.0,SW,10.4,19.6,N/A,Rain,Light Rain,220,2013-01-20 01:35:00
8:55 PM,36.1,32.9,88,29.45,5.0,SW,12.7,-,N/A,Rain,Light Rain,230,2013-01-20 01:55:00
9:15 PM,36.1,32.9,88,29.47,2.5,West,25.3,36.8,N/A,Snow,Snow,270,2013-01-20 02:15:00
9:34 PM,34.2,30.4,86,29.46,10.0,West,13.8,23.0,N/A,,Overcast,260,2013-01-20 02:34:00
9:55 PM,35.8,30.6,81,29.46,10.0,West,16.1,23.0,N/A,,Overcast,260,2013-01-20 02:55:00
10:15 PM,34.0,27.0,75,29.45,10.0,West,11.5,21.9,N/A,,Overcast,270,2013-01-20 03:15:00
10:35 PM,35.6,27.0,71,29.45,10.0,West,16.1,32.2,N/A,,Overcast,270,2013-01-20 03:35:00
10:55 PM,33.8,25.2,71,29.44,10.0,WSW,20.7,29.9,N/A,,Overcast,250,2013-01-20 03:55:00
11:15 PM,33.8,25.7,72,29.43,10.0,West,18.4,27.6,N/A,Snow,Light Snow,260,2013-01-20 04:15:00
11:34 PM,32.0,26.6,80,29.46,1.0,West,33.4,46.0,N/A,Snow,Light Snow,270,2013-01-20 04:34:00
11:55 PM,29.7,24.8,82,29.47,4.0,West,23.0,34.5,N/A,Snow,Light Snow,270,2013-01-20 04:55:00